Scroll down
FLIGHT INFORMATION
United States Air Force

4

At Arrival Gate

KADW
 TXKF
DATE: 2019-02-04
GATE:  -
GATE DEPARTURE: 21:59
TAKEOFF: 22:07
DATE: 2019-02-04
GATE:  -
LANDING: 23:55
GATE ARRIVAL: 00:07
FLIGHT DATA
Crew: -HIDDEN-
Speed: 496 kts Altitude: 41000 ft
Stage Length: 709 nm
Route: KADW TXKF
Block Time: 2.1 Flight Time: 1.8
Fuel Used: 37450 LB
TRACK DATA
50000 FT1000 KT
AIRCRAFT INFORMATION
Aircraft Type: B748
Registration: 30000
SELCAL:  MSN/LN: 0 / 1
Operator: UNITED STATES AIR FORCE
Flights: 2 Block Time: 6.2 Flight Time: 5.8
Fuel Used: 111003 LB
  • DEPARTURE INFORMATION
    Date: 2019-02-04
    Airport: KADW
    Gate:  -
    Gate Departure: 21:59
    Takeoff: 22:07
    ARRIVAL INFORMATION
    Date: 2019-02-04
    Airport: TXKF
    Gate:  -
    Landing: 23:55
    Gate Arrival: 00:07
  • FLIGHT DATA
    Crew: -HIDDEN-
    Speed: 496 kts Altitude: 41000 ft
    Stage Length: 383 nm
    Route: KADW TXKF
    Block Time: 2.1 Flight Time: 1.8
    Fuel Used: 37450 LB
  • AIRCRAFT INFORMATION
    Aircraft Type: B748
    Registration: 30000
    SELCAL:  MSN/LN: 0 / 1
    Operator: United States Air Force
    Flights: 2 Block Time: 6.2 Flight Time: 5.8
    Fuel Used: 111003 LB

DATALINK LOG | Newest first | Current as of: 2020-09-28 18:40:07
LABEL SEQUENCE CONTENT Dn/Up
QD074000:07 48.1▼ Dn
QC550823:55▼ Dn
GA5504ADVANCED GATE ASSIGNMENTS NOT YET AVAILABLE AT THIS AIRPORT▲ Up
GR3644TXKF 23:49 MAAS 01 YP/UM 00/01 DIPL/VIP YES▼ Dn
463432/OV OHPEA /TM 2234 /FL410 /TP B748 /SK BKN /TA -21 /WV 325/45 /RM OPS NORMAL-D TRUMP▼ Dn
2U3213TXKF 042223Z 12020KT 9999 -RA BKN013 OVC095 19/17 Q1016▲ Up
2S3213TXKF▼ Dn
QB075522:07▼ Dn
QA590421:59 85.8▼ Dn
A70536CLEARANCE AVAIL WITHIN 0:25 OF EDT▲ Up
B34950KADW TXKF AF204 30000 ▼ Dn
A30534CLEARED TO TXKF VIA ECG AR8 OXANA M325 ENAPI L457 BDA. SQUAWK 1035.▲ Up
2U4717KADW 042056Z AUTO 12003KT 10SM CLR 16/03 A3001 RMK AO2 SLP171 T01550030 56013 $▲ Up
2S4717KADW▼ Dn
A70129CLEARANCE AVAIL WITHIN 0:25 OF EDT▲ Up
B34539KADW TXKF AF204 30000 ▼ Dn
A75835CLEARANCE AVAIL WITHIN 0:25 OF EDT▲ Up
B34305KADW TXKF AF204 30000 ▼ Dn
Q04937[LINK ACK]▲ Up
Q03451[LINK TEST]▼ Dn


AIRCRAFT HISTORY
FLIGHT DATE FLIGHT NO. ORIGIN DESTINATION ROUTE BLOCK TIME FLIGHT TIME FUEL USED (LB) PILOT
2019-02-044KADW TXKF KADW TXKF2.11.837450-HIDDEN-
2018-12-11260KPAE KADW FLAAK MLP LWT DIK ABR RWF HARPI ODI DUTYS GIJ ESL4.74.473553Chris Makris